createdAt,value
2024-03-15T00:00:38.530Z,58.78
2024-03-15T00:03:12.298Z,58.86
2024-03-15T00:05:44.807Z,58.90
2024-03-15T00:08:17.768Z,58.94
2024-03-15T00:10:49.899Z,59.07
2024-03-15T00:13:22.318Z,59.24
2024-03-15T00:15:54.636Z,59.31
2024-03-15T00:18:28.096Z,59.32
2024-03-15T00:21:00.627Z,59.48
2024-03-15T00:23:32.749Z,59.47
2024-03-15T00:26:05.328Z,59.55
2024-03-15T00:28:38.101Z,59.62
2024-03-15T00:31:10.481Z,59.65
2024-03-15T00:33:42.929Z,59.71
2024-03-15T00:36:18.503Z,59.87
2024-03-15T00:38:50.693Z,59.99
2024-03-15T00:41:24.214Z,60.16
2024-03-15T00:43:56.643Z,60.17
2024-03-15T00:46:28.910Z,60.15
2024-03-15T00:49:01.943Z,60.25
2024-03-15T00:51:36.177Z,60.33
2024-03-15T00:54:08.593Z,60.21
2024-03-15T00:56:40.834Z,60.30
2024-03-15T00:59:13.083Z,60.41
2024-03-15T01:01:45.814Z,60.54
2024-03-15T01:04:18.029Z,60.73
2024-03-15T01:06:50.269Z,60.71
2024-03-15T01:09:22.519Z,60.84
2024-03-15T01:11:55.044Z,60.80
2024-03-15T01:14:27.547Z,60.96
2024-03-15T01:16:59.965Z,61.17
2024-03-15T01:19:33.975Z,61.22
2024-03-15T01:22:06.389Z,61.43
2024-03-15T01:24:39.264Z,61.51
2024-03-15T01:27:11.862Z,61.64
2024-03-15T01:29:44.368Z,61.80
2024-03-15T01:32:16.620Z,62.03
2024-03-15T01:34:50.498Z,61.97
2024-03-15T01:37:23.266Z,62.12
2024-03-15T01:39:56.054Z,62.10
2024-03-15T01:42:28.318Z,62.40
2024-03-15T01:45:00.686Z,62.46
2024-03-15T01:47:33.801Z,62.60
2024-03-15T01:50:09.710Z,62.54
2024-03-15T01:52:44.161Z,62.50
2024-03-15T01:55:16.416Z,62.61
2024-03-15T01:57:49.569Z,62.73
2024-03-15T02:00:21.926Z,62.84
2024-03-15T02:02:54.407Z,62.83
2024-03-15T02:05:26.894Z,62.95
2024-03-15T02:08:00.263Z,63.02
2024-03-15T02:10:32.772Z,63.15
2024-03-15T02:13:05.890Z,63.15
2024-03-15T02:15:38.292Z,63.18
2024-03-15T02:18:12.481Z,63.25
2024-03-15T02:20:44.903Z,63.24
2024-03-15T02:23:17.181Z,63.42
2024-03-15T02:25:50.633Z,63.43
2024-03-15T02:28:23.797Z,63.40
2024-03-15T02:30:56.819Z,63.37
2024-03-15T02:33:31.174Z,63.37
2024-03-15T02:36:03.991Z,63.47
2024-03-15T02:38:36.191Z,63.49
2024-03-15T02:41:10.506Z,63.56
2024-03-15T02:43:46.049Z,63.63
2024-03-15T02:46:18.252Z,62.78
2024-03-15T02:48:51.422Z,63.12
2024-03-15T02:51:25.347Z,63.24
2024-03-15T02:53:58.029Z,63.38
2024-03-15T02:56:30.675Z,63.50
2024-03-15T02:59:03.338Z,63.66
2024-03-15T03:01:36.946Z,63.71
2024-03-15T03:04:09.746Z,63.76
2024-03-15T03:06:44.048Z,63.89
2024-03-15T03:09:23.053Z,64.07
2024-03-15T03:11:57.850Z,64.26
2024-03-15T03:14:30.917Z,64.40
2024-03-15T03:17:07.870Z,64.49
2024-03-15T03:19:40.424Z,64.57
2024-03-15T03:22:14.281Z,64.66
2024-03-15T03:24:48.087Z,64.68
2024-03-15T03:27:21.059Z,64.69
2024-03-15T03:29:54.155Z,64.79
2024-03-15T03:32:26.814Z,64.73
2024-03-15T03:34:59.780Z,65.12
2024-03-15T03:37:36.152Z,65.24
2024-03-15T03:40:17.207Z,65.28
2024-03-15T03:42:50.216Z,65.38
2024-03-15T03:45:24.492Z,65.55
2024-03-15T03:47:58.602Z,65.64
2024-03-15T03:50:31.037Z,65.47
2024-03-15T03:53:03.121Z,65.46
2024-03-15T03:55:35.941Z,65.70
2024-03-15T03:58:08.704Z,65.63
2024-03-15T04:00:42.226Z,65.80
2024-03-15T04:03:15.026Z,65.87
2024-03-15T04:05:48.910Z,66.03
2024-03-15T04:08:21.573Z,66.07
2024-03-15T04:10:56.392Z,66.06
2024-03-15T04:13:28.856Z,66.23
2024-03-15T04:16:03.362Z,66.12
2024-03-15T04:18:36.194Z,66.22
2024-03-15T04:21:12.302Z,66.16
2024-03-15T04:23:45.298Z,65.90
2024-03-15T04:26:18.608Z,65.72
2024-03-15T04:28:54.311Z,65.86
2024-03-15T04:31:27.874Z,65.77
2024-03-15T04:34:00.978Z,65.29
2024-03-15T04:36:35.829Z,65.28
2024-03-15T04:39:10.013Z,65.08
2024-03-15T04:41:42.896Z,64.82
2024-03-15T04:44:17.273Z,64.71
2024-03-15T04:46:52.152Z,64.60
2024-03-15T04:49:27.694Z,64.43
2024-03-15T04:52:00.957Z,64.14
2024-03-15T04:54:36.541Z,63.62
2024-03-15T04:57:09.906Z,63.66
2024-03-15T04:59:42.884Z,63.54
2024-03-15T05:02:17.283Z,63.53
2024-03-15T05:04:51.064Z,63.10
2024-03-15T05:07:25.107Z,62.89
2024-03-15T05:10:01.021Z,63.17
2024-03-15T05:12:36.044Z,63.95
2024-03-15T05:15:12.389Z,63.11
2024-03-15T05:17:46.584Z,62.04
2024-03-15T05:20:20.198Z,61.46
2024-03-15T05:22:54.350Z,57.64
2024-03-15T05:25:28.409Z,56.77
2024-03-15T05:28:02.395Z,55.33
2024-03-15T05:30:36.474Z,55.16
2024-03-15T05:33:10.116Z,55.75
2024-03-15T05:35:45.157Z,54.13
2024-03-15T05:38:18.476Z,52.72
2024-03-15T05:40:52.893Z,51.04
2024-03-15T05:43:27.045Z,51.31
2024-03-15T05:46:01.372Z,52.38
2024-03-15T05:48:34.420Z,51.09
2024-03-15T05:51:08.261Z,49.64
2024-03-15T05:53:41.821Z,49.27
2024-03-15T05:56:16.368Z,49.17
2024-03-15T05:58:49.046Z,50.32
2024-03-15T06:01:21.764Z,49.99
2024-03-15T06:03:54.776Z,49.41
2024-03-15T06:06:28.047Z,50.01
2024-03-15T06:09:02.383Z,50.38
2024-03-15T06:11:36.001Z,50.91
2024-03-15T06:14:11.290Z,50.59
2024-03-15T06:16:45.062Z,50.48
2024-03-15T06:19:17.845Z,48.52
2024-03-15T06:21:51.685Z,46.41
2024-03-15T06:24:24.483Z,44.57
2024-03-15T06:26:58.666Z,46.32
2024-03-15T06:29:37.962Z,42.97
2024-03-15T06:32:14.506Z,42.03
2024-03-15T06:34:50.949Z,41.84
2024-03-15T06:37:26.200Z,40.38
2024-03-15T06:40:01.005Z,38.86
2024-03-15T06:42:39.406Z,37.75
2024-03-15T06:45:17.065Z,36.89
2024-03-15T06:47:52.739Z,35.73
2024-03-15T06:50:27.635Z,35.67
2024-03-15T06:53:03.162Z,36.27
2024-03-15T06:55:36.662Z,35.81
2024-03-15T06:58:15.912Z,35.44
2024-03-15T07:00:47.197Z,35.79
2024-03-15T07:03:20.256Z,36.76
2024-03-15T07:05:54.276Z,38.00
2024-03-15T07:08:27.422Z,38.62
2024-03-15T07:11:01.411Z,39.57
2024-03-15T07:13:34.580Z,40.77
2024-03-15T07:16:10.753Z,42.00
2024-03-15T07:18:45.550Z,43.14
2024-03-15T07:21:20.071Z,44.37
2024-03-15T07:23:53.368Z,44.87
2024-03-15T07:26:27.588Z,45.49
2024-03-15T07:29:01.648Z,46.14
2024-03-15T07:31:35.202Z,46.22
2024-03-15T07:34:09.503Z,46.78
2024-03-15T07:36:43.189Z,45.83
2024-03-15T07:39:16.989Z,46.79
2024-03-15T07:41:51.652Z,47.26
2024-03-15T07:44:25.011Z,47.45
2024-03-15T07:46:58.916Z,47.34
2024-03-15T07:49:33.681Z,47.83
2024-03-15T07:52:07.737Z,47.67
2024-03-15T07:54:41.564Z,47.48
2024-03-15T07:57:15.125Z,47.74
2024-03-15T07:59:48.543Z,47.00
2024-03-15T08:02:21.319Z,47.43
2024-03-15T08:04:55.235Z,46.77
2024-03-15T08:07:30.289Z,46.90
2024-03-15T08:10:03.371Z,47.24
2024-03-15T08:12:36.949Z,46.88
2024-03-15T08:15:12.214Z,46.99
2024-03-15T08:17:48.381Z,47.06
2024-03-15T08:20:22.777Z,47.87
2024-03-15T08:23:01.541Z,46.94
2024-03-15T08:25:37.848Z,46.58
2024-03-15T08:28:15.217Z,46.75
2024-03-15T08:30:50.368Z,46.62
2024-03-15T08:33:25.696Z,46.54
2024-03-15T08:36:00.608Z,46.77
2024-03-15T08:38:35.445Z,46.91
2024-03-15T08:41:10.755Z,47.20
2024-03-15T08:43:47.466Z,46.57
2024-03-15T08:46:22.742Z,46.69
2024-03-15T08:48:55.862Z,46.12
2024-03-15T08:51:31.147Z,46.27
2024-03-15T08:54:06.405Z,46.02
2024-03-15T08:56:41.027Z,46.87
2024-03-15T08:59:15.411Z,46.28
2024-03-15T09:01:50.844Z,46.15
2024-03-15T09:04:27.622Z,45.87
2024-03-15T09:07:02.969Z,46.26
2024-03-15T09:09:36.408Z,46.04
2024-03-15T09:12:09.997Z,46.21
2024-03-15T09:14:45.116Z,46.39
2024-03-15T09:17:19.574Z,46.52
2024-03-15T09:19:54.159Z,46.04
2024-03-15T09:22:28.383Z,46.61
2024-03-15T09:25:02.520Z,46.40
2024-03-15T09:27:37.173Z,46.64
2024-03-15T09:30:12.855Z,46.84
2024-03-15T09:32:48.173Z,46.44
2024-03-15T09:35:33.844Z,45.66
2024-03-15T09:38:14.300Z,44.48
2024-03-15T09:40:48.272Z,43.40
2024-03-15T09:43:21.024Z,42.81
2024-03-15T09:45:55.812Z,43.07
2024-03-15T09:48:30.854Z,41.72
2024-03-15T09:51:16.898Z,41.48
2024-03-15T09:53:57.373Z,41.11
2024-03-15T09:56:33.744Z,40.53
2024-03-15T09:59:09.753Z,40.14
2024-03-15T10:01:45.035Z,39.86
2024-03-15T10:04:20.710Z,39.43
2024-03-15T10:06:55.317Z,38.74
2024-03-15T10:09:30.778Z,39.12
2024-03-15T10:12:04.873Z,38.85
2024-03-15T10:14:38.491Z,39.06
2024-03-15T10:17:15.326Z,38.80
2024-03-15T10:19:51.516Z,38.68
2024-03-15T10:22:28.077Z,38.44
2024-03-15T10:25:02.760Z,38.77
2024-03-15T10:27:36.614Z,39.08
2024-03-15T10:30:14.246Z,39.00
2024-03-15T10:35:43.792Z,38.57
2024-03-15T10:38:19.613Z,37.90
2024-03-15T10:40:53.837Z,38.08
2024-03-15T10:43:29.273Z,38.13
2024-03-15T10:46:06.945Z,38.66
2024-03-15T10:48:40.712Z,38.46
2024-03-15T10:51:16.375Z,38.39
2024-03-15T10:53:53.585Z,38.26
2024-03-15T10:56:28.821Z,38.36
2024-03-15T10:59:03.879Z,38.23
2024-03-15T11:01:37.797Z,38.20
2024-03-15T11:04:13.711Z,38.18
2024-03-15T11:06:48.255Z,37.76
2024-03-15T11:09:26.055Z,38.13
2024-03-15T11:12:06.147Z,38.32
2024-03-15T11:14:40.075Z,39.54
2024-03-15T11:17:14.452Z,38.74
2024-03-15T11:19:49.382Z,38.94
2024-03-15T11:22:26.299Z,39.23
2024-03-15T11:25:02.764Z,39.49
2024-03-15T11:27:55.152Z,40.08
2024-03-15T11:30:31.151Z,39.79
2024-03-15T11:33:05.637Z,39.97
2024-03-15T11:35:40.684Z,39.84
2024-03-15T11:38:15.629Z,40.12
2024-03-15T11:40:49.474Z,40.94
2024-03-15T11:43:23.450Z,40.65
2024-03-15T11:45:59.442Z,40.81
2024-03-15T11:48:34.674Z,41.19
2024-03-15T11:51:10.311Z,41.26
2024-03-15T11:53:43.114Z,41.24
2024-03-15T11:56:17.456Z,41.24
2024-03-15T11:58:50.968Z,41.49
2024-03-15T12:01:24.305Z,41.42
2024-03-15T12:03:59.653Z,41.56
2024-03-15T12:06:33.960Z,41.38
2024-03-15T12:09:10.337Z,41.49
2024-03-15T12:11:47.328Z,41.62
2024-03-15T12:14:20.292Z,42.18
2024-03-15T12:16:55.223Z,42.08
2024-03-15T12:19:30.650Z,42.48
2024-03-15T12:22:04.942Z,42.59
2024-03-15T12:24:38.379Z,42.99
2024-03-15T12:27:15.133Z,43.04
2024-03-15T12:29:49.629Z,43.44
2024-03-15T12:32:25.114Z,43.89
2024-03-15T12:34:59.189Z,44.24
2024-03-15T12:37:34.998Z,44.56
2024-03-15T12:40:12.525Z,45.01
2024-03-15T12:42:45.578Z,44.67
2024-03-15T12:45:19.299Z,45.19
2024-03-15T12:47:53.114Z,45.63
2024-03-15T12:50:27.898Z,46.33
2024-03-15T12:53:03.225Z,46.09
2024-03-15T12:55:36.858Z,46.33
2024-03-15T12:58:12.143Z,46.97
2024-03-15T13:00:46.804Z,47.22
2024-03-15T13:03:19.937Z,47.43
2024-03-15T13:05:53.971Z,47.94
2024-03-15T13:08:26.753Z,47.87
2024-03-15T13:11:00.715Z,46.48
2024-03-15T13:13:34.129Z,48.13
2024-03-15T13:16:09.030Z,48.43
2024-03-15T13:18:42.916Z,48.39
2024-03-15T13:21:16.985Z,48.64
2024-03-15T13:23:50.714Z,49.11
2024-03-15T13:26:25.434Z,48.80
2024-03-15T13:28:59.320Z,48.96
2024-03-15T13:31:32.872Z,49.88
2024-03-15T13:34:05.735Z,49.59
2024-03-15T13:36:38.643Z,49.54
2024-03-15T13:39:14.748Z,49.56
2024-03-15T13:41:54.181Z,49.81
2024-03-15T13:44:28.932Z,49.56
2024-03-15T13:47:03.284Z,49.52
2024-03-15T13:49:36.704Z,49.38
2024-03-15T13:52:11.991Z,49.33
2024-03-15T13:54:47.340Z,49.46
2024-03-15T13:57:21.147Z,49.67
2024-03-15T13:59:55.474Z,49.85
2024-03-15T14:02:30.359Z,49.88
2024-03-15T14:05:05.399Z,49.70
2024-03-15T14:07:39.305Z,49.49
2024-03-15T14:10:13.998Z,49.45
2024-03-15T14:12:50.310Z,49.49
2024-03-15T14:15:23.958Z,49.27
2024-03-15T14:17:58.386Z,49.31
2024-03-15T14:20:35.736Z,49.67
2024-03-15T14:23:10.413Z,48.68
2024-03-15T14:25:47.039Z,49.78
2024-03-15T14:28:19.664Z,50.20
2024-03-15T14:30:57.728Z,50.25
2024-03-15T14:33:29.513Z,50.74
2024-03-15T14:36:03.278Z,50.86
2024-03-15T14:38:38.209Z,51.38
2024-03-15T14:41:12.280Z,51.90
2024-03-15T14:43:44.305Z,50.44
2024-03-15T14:46:18.949Z,51.87
2024-03-15T14:48:52.737Z,52.57
2024-03-15T14:51:25.200Z,52.88
2024-03-15T14:53:59.722Z,52.88
2024-03-15T14:56:34.881Z,53.16
2024-03-15T14:59:09.016Z,53.40
2024-03-15T15:01:42.507Z,53.82
2024-03-15T15:04:19.273Z,53.58
2024-03-15T15:06:50.602Z,54.26
2024-03-15T15:09:24.654Z,54.56
2024-03-15T15:11:56.863Z,55.58
2024-03-15T15:14:30.713Z,53.45
2024-03-15T15:17:05.939Z,54.34
2024-03-15T15:19:41.379Z,54.95
2024-03-15T15:22:15.923Z,55.23
2024-03-15T15:24:55.673Z,54.95
2024-03-15T15:27:31.486Z,55.46
2024-03-15T15:30:04.558Z,55.92
2024-03-15T15:32:38.842Z,56.13
2024-03-15T15:35:13.745Z,56.28
2024-03-15T15:37:46.738Z,54.71
2024-03-15T15:40:21.655Z,55.71
2024-03-15T15:42:54.840Z,56.38
2024-03-15T15:45:35.667Z,56.76
2024-03-15T15:48:09.385Z,57.21
2024-03-15T15:50:43.850Z,57.76
2024-03-15T15:53:16.679Z,57.93
2024-03-15T15:55:49.328Z,58.37
2024-03-15T15:58:22.335Z,58.40
2024-03-15T16:00:55.494Z,59.14
2024-03-15T16:03:28.077Z,59.94
2024-03-15T16:06:01.127Z,60.63
2024-03-15T16:08:34.240Z,60.64
2024-03-15T16:11:07.199Z,61.26
2024-03-15T16:13:41.101Z,61.57
2024-03-15T16:16:13.998Z,61.71
2024-03-15T16:18:46.752Z,62.06
2024-03-15T16:21:20.562Z,62.42
2024-03-15T16:23:54.244Z,62.64
2024-03-15T16:26:29.075Z,62.82
2024-03-15T16:29:01.382Z,63.09
2024-03-15T16:31:34.587Z,63.11
2024-03-15T16:34:11.647Z,63.29
2024-03-15T16:36:45.003Z,63.64
2024-03-15T16:39:19.126Z,63.76
2024-03-15T16:41:52.175Z,63.77
2024-03-15T16:44:26.840Z,63.95
2024-03-15T16:47:00.239Z,63.88
2024-03-15T16:49:33.700Z,64.01
2024-03-15T16:52:07.406Z,64.25
2024-03-15T16:54:39.928Z,64.53
2024-03-15T16:57:12.574Z,64.64
2024-03-15T16:59:45.005Z,65.05
2024-03-15T17:02:17.747Z,64.79
2024-03-15T17:04:50.388Z,64.90
2024-03-15T17:07:23.514Z,65.07
2024-03-15T17:09:56.550Z,65.21
2024-03-15T17:12:29.524Z,65.39
2024-03-15T17:15:01.927Z,65.26
2024-03-15T17:17:36.119Z,65.52
2024-03-15T17:20:10.987Z,64.99
2024-03-15T17:22:43.864Z,65.36
2024-03-15T17:25:17.080Z,65.48
2024-03-15T17:27:49.275Z,65.35
2024-03-15T17:30:22.186Z,65.44
2024-03-15T17:32:55.784Z,65.44
2024-03-15T17:35:30.462Z,65.41
2024-03-15T17:38:04.048Z,65.16
2024-03-15T17:40:37.100Z,65.16
2024-03-15T17:43:12.282Z,65.03
2024-03-15T17:45:45.603Z,65.15
2024-03-15T17:48:18.745Z,65.08
2024-03-15T17:53:41.970Z,65.22
2024-03-15T17:56:15.065Z,65.26
2024-03-15T17:58:48.045Z,65.19
2024-03-15T18:01:22.425Z,65.38
2024-03-15T18:03:55.025Z,65.44
2024-03-15T18:06:27.804Z,65.65
2024-03-15T18:09:00.640Z,65.30
2024-03-15T18:11:33.162Z,65.44
2024-03-15T18:14:06.344Z,65.56
2024-03-15T18:16:39.173Z,65.52
2024-03-15T18:19:11.978Z,65.41
2024-03-15T18:21:44.817Z,65.39
2024-03-15T18:24:17.585Z,65.73
2024-03-15T18:26:50.861Z,65.80
2024-03-15T18:29:23.718Z,65.85
2024-03-15T18:31:56.528Z,65.65
2024-03-15T18:34:30.530Z,65.69
2024-03-15T18:37:04.578Z,65.89
2024-03-15T18:39:38.313Z,65.84
2024-03-15T18:42:11.750Z,65.57
2024-03-15T18:44:44.339Z,65.81
2024-03-15T18:47:17.278Z,65.97
2024-03-15T18:49:50.999Z,65.92
2024-03-15T18:52:23.580Z,65.85
2024-03-15T18:54:57.421Z,65.33
2024-03-15T18:57:29.772Z,65.39
2024-03-15T19:00:04.044Z,65.55
2024-03-15T19:02:38.568Z,65.37
2024-03-15T19:05:11.669Z,65.46
2024-03-15T19:07:45.189Z,65.29
2024-03-15T19:10:17.881Z,65.53
2024-03-15T19:12:51.832Z,65.78
2024-03-15T19:15:26.650Z,65.90
2024-03-15T19:17:59.567Z,65.65
2024-03-15T19:20:32.569Z,65.56
2024-03-15T19:23:08.719Z,65.72
2024-03-15T19:25:39.835Z,65.84
2024-03-15T19:28:12.658Z,65.91
2024-03-15T19:30:45.574Z,66.03
2024-03-15T19:33:18.367Z,66.05
2024-03-15T19:35:52.386Z,66.49
2024-03-15T19:38:25.441Z,66.67
2024-03-15T19:40:58.252Z,66.12
2024-03-15T19:43:30.500Z,66.22
2024-03-15T19:46:03.351Z,66.08
2024-03-15T19:48:38.440Z,66.48
2024-03-15T19:51:11.862Z,66.60
2024-03-15T19:53:44.605Z,66.62
2024-03-15T19:56:16.927Z,66.49
2024-03-15T19:58:50.529Z,66.53
2024-03-15T20:01:23.694Z,66.67
2024-03-15T20:03:56.279Z,66.81
2024-03-15T20:06:28.921Z,67.16
2024-03-15T20:09:02.087Z,67.08
2024-03-15T20:11:36.387Z,66.95
2024-03-15T20:14:09.791Z,67.01
2024-03-15T20:16:42.419Z,67.10
2024-03-15T20:19:15.746Z,67.14
2024-03-15T20:21:49.054Z,66.80
2024-03-15T20:24:23.272Z,66.66
2024-03-15T20:26:55.923Z,67.00
2024-03-15T20:29:29.485Z,67.13
2024-03-15T20:32:02.523Z,67.01
2024-03-15T20:34:35.057Z,67.03
2024-03-15T20:37:07.668Z,67.03
2024-03-15T20:39:42.962Z,67.22
2024-03-15T20:42:18.062Z,66.72
2024-03-15T20:44:50.930Z,66.69
2024-03-15T20:47:24.602Z,66.80
2024-03-15T20:49:58.000Z,67.00
2024-03-15T20:52:30.477Z,66.63
2024-03-15T20:55:06.410Z,67.04
2024-03-15T20:57:39.629Z,67.43
2024-03-15T21:00:14.397Z,67.35
2024-03-15T21:02:47.234Z,67.39
2024-03-15T21:05:19.918Z,67.33
2024-03-15T21:07:52.341Z,67.60
2024-03-15T21:10:24.499Z,67.64
2024-03-15T21:12:57.192Z,67.29
2024-03-15T21:15:32.100Z,67.22
2024-03-15T21:18:04.140Z,67.44
2024-03-15T21:20:36.641Z,67.79
2024-03-15T21:23:09.391Z,67.77
2024-03-15T21:25:41.897Z,67.81
2024-03-15T21:28:14.290Z,68.01
2024-03-15T21:30:48.491Z,68.13
2024-03-15T21:33:21.745Z,68.14
2024-03-15T21:35:55.746Z,67.95
2024-03-15T21:38:28.700Z,67.79
2024-03-15T21:41:02.579Z,67.98
2024-03-15T21:43:35.168Z,68.01
2024-03-15T21:46:09.076Z,68.07
2024-03-15T21:48:42.709Z,67.67
2024-03-15T21:51:15.943Z,67.49
2024-03-15T21:53:48.443Z,67.29
2024-03-15T21:56:21.862Z,67.70
2024-03-15T21:58:56.638Z,67.93
2024-03-15T22:01:31.072Z,68.14
2024-03-15T22:04:06.825Z,68.35
2024-03-15T22:06:43.930Z,68.12
2024-03-15T22:09:20.373Z,68.40
2024-03-15T22:11:51.462Z,68.55
2024-03-15T22:14:25.475Z,68.34
2024-03-15T22:16:58.060Z,68.67
2024-03-15T22:19:30.473Z,68.49
2024-03-15T22:22:04.320Z,68.65
2024-03-15T22:24:38.811Z,68.75
2024-03-15T22:27:09.623Z,68.35
2024-03-15T22:29:41.928Z,68.35
2024-03-15T22:32:14.590Z,68.46
2024-03-15T22:34:47.530Z,68.36
2024-03-15T22:37:20.417Z,68.35
2024-03-15T22:39:53.746Z,68.40
2024-03-15T22:42:26.724Z,68.12
2024-03-15T22:44:59.294Z,68.31
2024-03-15T22:47:34.159Z,68.38
2024-03-15T22:50:07.451Z,67.72
2024-03-15T22:52:40.554Z,68.34
2024-03-15T22:55:14.555Z,68.64
2024-03-15T22:57:48.673Z,68.79
2024-03-15T23:00:22.685Z,68.96
2024-03-15T23:02:55.175Z,69.09
2024-03-15T23:05:28.727Z,69.10
2024-03-15T23:08:02.195Z,69.34
2024-03-15T23:10:34.684Z,69.44
2024-03-15T23:13:10.792Z,69.68
2024-03-15T23:15:43.557Z,69.84
2024-03-15T23:18:16.676Z,69.75
2024-03-15T23:20:52.715Z,69.84
2024-03-15T23:23:26.624Z,70.11
2024-03-15T23:26:00.399Z,70.05
2024-03-15T23:28:32.946Z,70.23
2024-03-15T23:31:07.487Z,70.42
2024-03-15T23:33:43.796Z,70.74
2024-03-15T23:36:16.811Z,71.12
2024-03-15T23:38:49.225Z,71.25
2024-03-15T23:41:21.586Z,71.48
2024-03-15T23:43:55.202Z,71.85
2024-03-15T23:46:28.478Z,72.00
2024-03-15T23:49:01.538Z,72.08
2024-03-15T23:51:34.691Z,72.39
2024-03-15T23:54:07.537Z,72.41
2024-03-15T23:56:39.833Z,72.60
2024-03-15T23:59:12.279Z,72.72
